createdAt,value
2023-03-19T00:01:15.000Z,13.10
2023-03-19T00:03:44.393Z,13.10
2023-03-19T00:06:13.445Z,13.00
2023-03-19T00:08:42.919Z,13.10
2023-03-19T00:11:13.441Z,13.00
2023-03-19T00:13:43.703Z,13.00
2023-03-19T00:16:12.646Z,13.00
2023-03-19T00:18:41.798Z,12.90
2023-03-19T00:21:10.774Z,12.90
2023-03-19T00:23:39.471Z,12.90
2023-03-19T00:26:08.596Z,12.90
2023-03-19T00:28:38.274Z,12.80
2023-03-19T00:31:13.986Z,12.80
2023-03-19T00:33:43.273Z,12.70
2023-03-19T00:36:12.828Z,12.70
2023-03-19T00:38:42.360Z,12.70
2023-03-19T00:41:11.521Z,12.70
2023-03-19T00:43:41.247Z,12.70
2023-03-19T00:46:11.777Z,12.60
2023-03-19T00:48:40.769Z,12.60
2023-03-19T00:51:11.500Z,12.60
2023-03-19T00:53:42.169Z,12.50
2023-03-19T00:56:12.217Z,12.50
2023-03-19T00:58:41.360Z,12.50
2023-03-19T01:01:13.928Z,12.50
2023-03-19T01:03:43.559Z,12.50
2023-03-19T01:06:12.622Z,12.40
2023-03-19T01:08:41.735Z,12.40
2023-03-19T01:11:14.254Z,12.30
2023-03-19T01:13:43.275Z,12.40
2023-03-19T01:16:13.864Z,12.30
2023-03-19T01:18:43.240Z,12.30
2023-03-19T01:21:12.233Z,12.20
2023-03-19T01:23:47.286Z,12.20
2023-03-19T01:26:16.660Z,12.20
2023-03-19T01:28:45.718Z,12.20
2023-03-19T01:31:17.241Z,12.20
2023-03-19T01:34:15.203Z,12.20
2023-03-19T01:36:49.922Z,12.10
2023-03-19T01:39:24.292Z,12.10
2023-03-19T01:41:53.429Z,12.10
2023-03-19T01:44:37.715Z,12.10
2023-03-19T01:47:32.153Z,12.10
2023-03-19T01:50:25.824Z,12.10
2023-03-19T01:53:08.346Z,12.00
2023-03-19T01:56:16.330Z,12.00
2023-03-19T01:59:01.758Z,12.00
2023-03-19T02:01:53.510Z,12.00
2023-03-19T02:04:25.680Z,12.00
2023-03-19T02:06:56.463Z,12.00
2023-03-19T02:09:26.165Z,11.90
2023-03-19T02:11:57.332Z,11.90
2023-03-19T02:14:26.658Z,11.90
2023-03-19T02:16:56.546Z,11.90
2023-03-19T02:19:34.726Z,11.90
2023-03-19T02:22:05.473Z,11.80
2023-03-19T02:24:38.079Z,11.80
2023-03-19T02:27:13.375Z,11.80
2023-03-19T02:29:49.334Z,11.80
2023-03-19T02:32:18.636Z,11.80
2023-03-19T02:34:47.827Z,11.80
2023-03-19T02:37:20.804Z,11.80
2023-03-19T02:39:55.856Z,11.80
2023-03-19T02:42:29.142Z,11.80
2023-03-19T02:44:58.990Z,11.80
2023-03-19T02:47:28.716Z,11.70
2023-03-19T02:49:57.716Z,11.70
2023-03-19T02:52:28.081Z,11.70
2023-03-19T02:54:56.966Z,11.70
2023-03-19T02:57:28.223Z,11.60
2023-03-19T02:59:57.283Z,11.60
2023-03-19T03:02:27.265Z,11.60
2023-03-19T03:04:56.275Z,11.60
2023-03-19T03:07:27.568Z,11.60
2023-03-19T03:09:56.723Z,11.60
2023-03-19T03:12:27.134Z,11.50
2023-03-19T03:14:56.540Z,11.50
2023-03-19T03:17:25.957Z,11.60
2023-03-19T03:19:55.069Z,11.50
2023-03-19T03:22:24.185Z,11.50
2023-03-19T03:24:53.102Z,11.50
2023-03-19T03:27:22.078Z,11.50
2023-03-19T03:29:52.442Z,11.50
2023-03-19T03:32:21.594Z,11.50
2023-03-19T03:34:50.385Z,11.50
2023-03-19T03:37:19.680Z,11.50
2023-03-19T03:39:48.526Z,11.50
2023-03-19T03:42:17.354Z,11.50
2023-03-19T03:44:46.844Z,11.50
2023-03-19T03:47:17.856Z,11.50
2023-03-19T03:49:47.058Z,11.50
2023-03-19T03:52:16.457Z,11.50
2023-03-19T03:54:45.417Z,11.50
2023-03-19T03:57:14.330Z,11.50
2023-03-19T03:59:43.558Z,11.50
2023-03-19T04:02:12.911Z,11.50
2023-03-19T04:04:43.219Z,11.50
2023-03-19T04:07:13.087Z,11.50
2023-03-19T04:09:50.898Z,11.60
2023-03-19T04:12:19.993Z,11.60
2023-03-19T04:14:49.935Z,11.60
2023-03-19T04:17:19.251Z,11.60
2023-03-19T04:19:49.453Z,11.60
2023-03-19T04:22:18.876Z,11.60
2023-03-19T04:24:47.898Z,11.60
2023-03-19T04:27:16.891Z,11.60
2023-03-19T04:29:46.348Z,11.60
2023-03-19T04:32:16.004Z,11.60
2023-03-19T04:34:44.912Z,11.60
2023-03-19T04:37:15.293Z,11.60
2023-03-19T04:39:49.557Z,11.60
2023-03-19T04:42:18.639Z,11.60
2023-03-19T04:44:56.105Z,11.60
2023-03-19T04:47:25.736Z,11.70
2023-03-19T04:50:00.876Z,11.70
2023-03-19T04:52:31.406Z,11.70
2023-03-19T04:55:00.589Z,11.70
2023-03-19T04:57:29.510Z,11.70
2023-03-19T04:59:59.235Z,11.70
2023-03-19T05:02:28.376Z,11.70
2023-03-19T05:04:57.582Z,11.70
2023-03-19T05:07:27.214Z,11.70
2023-03-19T05:09:57.296Z,11.70
2023-03-19T05:12:26.985Z,11.70
2023-03-19T05:14:57.867Z,11.70
2023-03-19T05:17:38.039Z,11.70
2023-03-19T05:20:16.194Z,11.70
2023-03-19T05:22:52.047Z,11.70
2023-03-19T05:25:22.824Z,11.70
2023-03-19T05:27:51.855Z,11.70
2023-03-19T05:30:24.599Z,11.70
2023-03-19T05:33:04.408Z,11.60
2023-03-19T05:35:38.593Z,11.60
2023-03-19T05:38:13.309Z,11.60
2023-03-19T05:40:46.305Z,11.70
2023-03-19T05:43:24.735Z,11.60
2023-03-19T05:45:54.604Z,11.60
2023-03-19T05:48:28.645Z,11.60
2023-03-19T05:50:59.278Z,11.60
2023-03-19T05:53:32.339Z,11.70
2023-03-19T05:56:21.608Z,11.70
2023-03-19T05:59:22.546Z,11.70
2023-03-19T06:02:04.150Z,11.70
2023-03-19T06:04:34.159Z,11.70
2023-03-19T06:07:04.199Z,11.70
2023-03-19T06:09:33.454Z,11.70
2023-03-19T06:12:04.679Z,11.70
2023-03-19T06:14:47.213Z,11.70
2023-03-19T06:17:34.907Z,11.70
2023-03-19T06:20:08.380Z,11.70
2023-03-19T06:22:37.598Z,11.70
2023-03-19T06:25:08.296Z,11.70
2023-03-19T06:27:40.872Z,11.80
2023-03-19T06:30:42.075Z,11.80
2023-03-19T06:33:33.750Z,11.80
2023-03-19T06:36:03.134Z,11.80
2023-03-19T06:38:35.595Z,11.80
2023-03-19T06:41:04.860Z,11.70
2023-03-19T06:43:37.186Z,11.80
2023-03-19T06:46:08.922Z,11.80
2023-03-19T06:48:39.162Z,11.80
2023-03-19T06:51:08.305Z,11.90
2023-03-19T06:53:37.171Z,11.90
2023-03-19T06:56:06.585Z,11.90
2023-03-19T06:58:36.967Z,12.00
2023-03-19T07:01:06.248Z,12.00
2023-03-19T07:03:35.386Z,12.00
2023-03-19T07:06:04.509Z,12.00
2023-03-19T07:08:33.386Z,12.10
2023-03-19T07:11:05.870Z,12.10
2023-03-19T07:13:37.957Z,12.10
2023-03-19T07:16:07.455Z,12.10
2023-03-19T07:18:36.219Z,12.20
2023-03-19T07:21:05.637Z,12.20
2023-03-19T07:23:34.521Z,12.20
2023-03-19T07:26:03.678Z,12.20
2023-03-19T07:28:32.778Z,12.20
2023-03-19T07:31:03.199Z,12.30
2023-03-19T07:33:32.434Z,12.20
2023-03-19T07:36:01.711Z,12.30
2023-03-19T07:38:30.910Z,12.30
2023-03-19T07:41:02.722Z,12.30
2023-03-19T07:43:32.429Z,12.40
2023-03-19T07:46:03.098Z,12.50
2023-03-19T07:48:32.165Z,12.60
2023-03-19T07:51:01.150Z,12.60
2023-03-19T07:53:30.473Z,12.70
2023-03-19T07:55:59.803Z,12.80
2023-03-19T07:58:29.141Z,12.80
2023-03-19T08:00:58.246Z,12.80
2023-03-19T08:03:29.192Z,12.90
2023-03-19T08:05:58.449Z,13.00
2023-03-19T08:08:27.480Z,13.00
2023-03-19T08:10:56.886Z,13.10
2023-03-19T08:13:26.030Z,13.20
2023-03-19T08:15:56.423Z,13.20
2023-03-19T08:18:25.572Z,13.30
2023-03-19T08:20:56.126Z,13.30
2023-03-19T08:23:25.123Z,13.40
2023-03-19T08:25:55.463Z,13.40
2023-03-19T08:28:24.798Z,13.50
2023-03-19T08:30:55.642Z,13.50
2023-03-19T08:33:24.842Z,13.60
2023-03-19T08:35:55.507Z,13.60
2023-03-19T08:38:24.693Z,13.70
2023-03-19T08:41:04.661Z,13.70
2023-03-19T08:43:35.382Z,13.70
2023-03-19T08:46:05.377Z,13.80
2023-03-19T08:48:34.426Z,13.80
2023-03-19T08:51:05.175Z,13.80
2023-03-19T08:53:34.652Z,13.80
2023-03-19T08:56:07.780Z,13.90
2023-03-19T08:58:36.889Z,13.90
2023-03-19T09:01:08.862Z,13.90
2023-03-19T09:03:38.811Z,14.00
2023-03-19T09:06:11.951Z,14.00
2023-03-19T09:08:42.705Z,14.10
2023-03-19T09:11:12.302Z,14.10
2023-03-19T09:13:41.776Z,14.10
2023-03-19T09:16:10.933Z,14.20
2023-03-19T09:18:40.374Z,14.20
2023-03-19T09:21:10.723Z,14.30
2023-03-19T09:23:39.677Z,14.30
2023-03-19T09:26:08.911Z,14.40
2023-03-19T09:28:38.164Z,14.40
2023-03-19T09:31:11.636Z,14.40
2023-03-19T09:33:40.650Z,14.50
2023-03-19T09:36:11.312Z,14.50
2023-03-19T09:38:43.517Z,14.60
2023-03-19T09:41:17.914Z,14.60
2023-03-19T09:44:01.755Z,14.70
2023-03-19T09:46:37.724Z,14.70
2023-03-19T09:49:14.952Z,14.80
2023-03-19T09:51:51.198Z,14.90
2023-03-19T09:54:33.538Z,14.90
2023-03-19T09:57:02.864Z,15.00
2023-03-19T09:59:31.998Z,15.00
2023-03-19T10:02:20.386Z,15.10
2023-03-19T10:05:05.480Z,15.10
2023-03-19T10:07:57.001Z,15.20
2023-03-19T10:10:48.404Z,15.20
2023-03-19T10:13:37.776Z,15.20
2023-03-19T10:16:12.063Z,15.20
2023-03-19T10:18:45.900Z,15.20
2023-03-19T10:21:21.169Z,15.20
2023-03-19T10:23:56.501Z,15.20
2023-03-19T10:26:31.333Z,15.20
2023-03-19T10:29:06.686Z,15.30
2023-03-19T10:31:52.820Z,15.30
2023-03-19T10:34:31.409Z,15.20
2023-03-19T10:37:03.790Z,15.30
2023-03-19T10:39:36.420Z,15.30
2023-03-19T10:42:15.010Z,15.30
2023-03-19T10:44:49.925Z,15.20
2023-03-19T10:47:20.373Z,15.20
2023-03-19T10:49:51.589Z,15.20
2023-03-19T10:52:24.941Z,15.20
2023-03-19T10:55:03.246Z,15.20
2023-03-19T10:57:32.684Z,15.20
2023-03-19T11:00:05.387Z,15.20
2023-03-19T11:02:34.355Z,15.20
2023-03-19T11:05:25.098Z,15.20
2023-03-19T11:07:58.057Z,15.20
2023-03-19T11:10:31.680Z,15.20
2023-03-19T11:13:04.299Z,15.20
2023-03-19T11:15:37.281Z,15.20
2023-03-19T11:18:19.983Z,15.20
2023-03-19T11:20:54.898Z,15.20
2023-03-19T11:23:24.034Z,15.20
2023-03-19T11:25:55.447Z,15.20
2023-03-19T11:28:26.823Z,15.10
2023-03-19T11:31:03.645Z,15.10
2023-03-19T11:33:50.201Z,15.10
2023-03-19T11:36:24.000Z,15.10
2023-03-19T11:39:05.296Z,15.00
2023-03-19T11:41:50.822Z,15.00
2023-03-19T11:44:27.465Z,15.00
2023-03-19T11:47:03.054Z,14.90
2023-03-19T11:49:43.551Z,14.90
2023-03-19T11:52:18.845Z,14.90
2023-03-19T11:55:04.377Z,14.90
2023-03-19T11:57:55.410Z,14.90
2023-03-19T12:00:32.180Z,14.90
2023-03-19T12:03:41.662Z,14.90
2023-03-19T12:06:22.745Z,15.00
2023-03-19T12:09:00.321Z,14.90
2023-03-19T12:11:36.851Z,14.90
2023-03-19T12:14:26.633Z,15.00
2023-03-19T12:17:08.867Z,14.90
2023-03-19T12:20:06.830Z,15.00
2023-03-19T12:22:50.646Z,15.00
2023-03-19T12:25:31.932Z,15.00
2023-03-19T12:28:07.946Z,15.10
2023-03-19T12:30:42.461Z,15.20
2023-03-19T12:33:32.592Z,15.40
2023-03-19T12:36:04.115Z,15.60
2023-03-19T12:38:39.132Z,15.90
2023-03-19T12:41:12.630Z,16.30
2023-03-19T12:43:50.533Z,16.70
2023-03-19T12:46:27.442Z,17.20
2023-03-19T12:49:01.036Z,17.70
2023-03-19T12:51:35.360Z,18.30
2023-03-19T12:54:09.205Z,18.80
2023-03-19T12:56:44.160Z,19.30
2023-03-19T12:59:22.962Z,19.90
2023-03-19T13:01:59.243Z,20.40
2023-03-19T13:04:32.402Z,20.90
2023-03-19T13:07:06.665Z,21.20
2023-03-19T13:09:41.546Z,21.40
2023-03-19T13:12:15.426Z,21.50
2023-03-19T13:14:52.739Z,21.50
2023-03-19T13:17:29.424Z,21.50
2023-03-19T13:20:00.807Z,21.40
2023-03-19T13:22:33.945Z,21.20
2023-03-19T13:25:04.468Z,20.90
2023-03-19T13:27:35.112Z,20.70
2023-03-19T13:30:19.898Z,20.50
2023-03-19T13:32:51.869Z,20.20
2023-03-19T13:35:34.634Z,20.10
2023-03-19T13:38:09.915Z,19.90
2023-03-19T13:40:48.102Z,19.70
2023-03-19T13:43:39.736Z,19.60
2023-03-19T13:46:31.856Z,19.50
2023-03-19T13:49:11.179Z,19.40
2023-03-19T13:51:40.379Z,19.30
2023-03-19T13:54:18.327Z,19.10
2023-03-19T13:57:07.722Z,19.00
2023-03-19T13:59:37.979Z,18.90
2023-03-19T14:02:41.386Z,18.80
2023-03-19T14:05:18.930Z,18.70
2023-03-19T14:07:53.010Z,18.60
2023-03-19T14:10:30.737Z,18.50
2023-03-19T14:13:06.987Z,18.50
2023-03-19T14:15:40.598Z,18.40
2023-03-19T14:18:18.711Z,18.30
2023-03-19T14:20:59.541Z,18.20
2023-03-19T14:23:40.927Z,18.20
2023-03-19T14:26:16.996Z,18.10
2023-03-19T14:28:56.165Z,18.00
2023-03-19T14:31:32.308Z,17.90
2023-03-19T14:34:07.343Z,17.80
2023-03-19T14:36:43.713Z,17.80
2023-03-19T14:39:22.226Z,17.80
2023-03-19T14:41:57.179Z,17.80
2023-03-19T14:45:03.113Z,17.70
2023-03-19T14:48:03.038Z,17.70
2023-03-19T14:50:54.959Z,17.70
2023-03-19T14:53:30.982Z,17.60
2023-03-19T14:56:04.663Z,17.60
2023-03-19T14:58:33.618Z,17.60
2023-03-19T15:01:02.630Z,17.60
2023-03-19T15:03:34.247Z,17.50
2023-03-19T15:06:05.303Z,17.60
2023-03-19T15:08:39.306Z,17.50
2023-03-19T15:11:25.012Z,17.50
2023-03-19T15:14:14.621Z,17.50
2023-03-19T15:16:51.494Z,17.40
2023-03-19T15:19:27.082Z,17.40
2023-03-19T15:22:06.289Z,17.40
2023-03-19T15:24:36.560Z,17.40
2023-03-19T15:27:20.133Z,17.40
2023-03-19T15:29:51.564Z,17.30
2023-03-19T15:32:52.322Z,17.30
2023-03-19T15:35:27.826Z,17.30
2023-03-19T15:38:00.662Z,17.30
2023-03-19T15:40:33.313Z,17.20
2023-03-19T15:43:04.392Z,17.20
2023-03-19T15:45:35.586Z,17.20
2023-03-19T15:48:10.220Z,17.20
2023-03-19T15:50:43.357Z,17.20
2023-03-19T15:53:17.069Z,17.20
2023-03-19T15:55:50.451Z,17.20
2023-03-19T15:58:23.539Z,17.20
2023-03-19T16:00:54.873Z,17.20
2023-03-19T16:03:28.761Z,17.20
2023-03-19T16:06:03.412Z,17.20
2023-03-19T16:08:33.265Z,17.10
2023-03-19T16:11:27.284Z,17.10
2023-03-19T16:13:59.146Z,17.10
2023-03-19T16:16:31.338Z,17.10
2023-03-19T16:19:00.516Z,17.00
2023-03-19T16:21:36.105Z,17.00
2023-03-19T16:24:10.597Z,17.00
2023-03-19T16:26:43.346Z,16.90
2023-03-19T16:29:21.058Z,16.90
2023-03-19T16:31:52.413Z,16.80
2023-03-19T16:34:32.114Z,16.80
2023-03-19T16:37:03.212Z,16.80
2023-03-19T16:39:37.858Z,16.70
2023-03-19T16:42:29.817Z,16.60
2023-03-19T16:44:58.870Z,16.60
2023-03-19T16:47:27.839Z,16.60
2023-03-19T16:49:57.139Z,16.60
2023-03-19T16:52:26.726Z,16.50
2023-03-19T16:54:56.614Z,16.50
2023-03-19T16:57:27.273Z,16.40
2023-03-19T16:59:56.433Z,16.40
2023-03-19T17:02:25.595Z,16.40
2023-03-19T17:04:54.892Z,16.30
2023-03-19T17:07:24.008Z,16.30
2023-03-19T17:09:53.076Z,16.20
2023-03-19T17:12:22.098Z,16.20
2023-03-19T17:14:54.129Z,16.20
2023-03-19T17:17:23.307Z,16.10
2023-03-19T17:19:52.547Z,16.10
2023-03-19T17:22:23.282Z,16.10
2023-03-19T17:24:53.736Z,16.00
2023-03-19T17:27:23.093Z,15.90
2023-03-19T17:29:53.738Z,16.00
2023-03-19T17:32:29.669Z,15.80
2023-03-19T17:34:58.632Z,15.80
2023-03-19T17:37:30.164Z,15.80
2023-03-19T17:39:59.391Z,15.70
2023-03-19T17:42:29.531Z,15.70
2023-03-19T17:45:00.963Z,15.60
2023-03-19T17:47:30.056Z,15.60
2023-03-19T17:49:59.359Z,15.60
2023-03-19T17:52:30.300Z,15.50
2023-03-19T17:54:59.299Z,15.50
2023-03-19T17:57:28.507Z,15.50
2023-03-19T17:59:58.807Z,15.40
2023-03-19T18:02:29.872Z,15.40
2023-03-19T18:04:58.875Z,15.40
2023-03-19T18:07:28.082Z,15.30
2023-03-19T18:09:57.228Z,15.30
2023-03-19T18:12:26.101Z,15.30
2023-03-19T18:14:54.939Z,15.30
2023-03-19T18:17:25.194Z,15.30
2023-03-19T18:19:54.374Z,15.30
2023-03-19T18:22:23.204Z,15.20
2023-03-19T18:24:52.195Z,15.20
2023-03-19T18:27:24.096Z,15.20
2023-03-19T18:29:53.046Z,15.20
2023-03-19T18:32:28.834Z,15.10
2023-03-19T18:34:58.385Z,15.10
2023-03-19T18:37:27.392Z,15.10
2023-03-19T18:39:56.237Z,15.00
2023-03-19T18:42:25.302Z,15.00
2023-03-19T18:44:54.356Z,15.00
2023-03-19T18:47:23.649Z,15.00
2023-03-19T18:49:57.611Z,14.90
2023-03-19T18:52:26.802Z,14.90
2023-03-19T18:54:55.965Z,15.00
2023-03-19T18:57:24.740Z,14.90
2023-03-19T18:59:53.665Z,14.90
2023-03-19T19:02:34.253Z,14.90
2023-03-19T19:05:05.493Z,14.90
2023-03-19T19:07:34.398Z,14.90
2023-03-19T19:10:05.334Z,14.80
2023-03-19T19:12:34.956Z,14.80
2023-03-19T19:15:05.857Z,14.70
2023-03-19T19:17:35.177Z,14.70
2023-03-19T19:20:06.676Z,14.70
2023-03-19T19:22:35.656Z,14.70
2023-03-19T19:25:04.877Z,14.70
2023-03-19T19:27:34.411Z,14.70
2023-03-19T19:30:03.574Z,14.70
2023-03-19T19:32:32.950Z,14.70
2023-03-19T19:35:02.039Z,14.70
2023-03-19T19:37:32.621Z,14.70
2023-03-19T19:40:01.514Z,14.70
2023-03-19T19:42:31.404Z,14.70
2023-03-19T19:45:01.574Z,14.70
2023-03-19T19:47:30.774Z,14.70
2023-03-19T19:49:59.885Z,14.70
2023-03-19T19:52:30.573Z,14.70
2023-03-19T19:55:02.191Z,14.70
2023-03-19T19:57:31.289Z,14.70
2023-03-19T20:00:00.579Z,14.70
2023-03-19T20:02:30.411Z,14.70
2023-03-19T20:04:59.646Z,14.70
2023-03-19T20:07:28.546Z,14.70
2023-03-19T20:09:57.588Z,14.70
2023-03-19T20:12:32.783Z,14.70
2023-03-19T20:15:02.557Z,14.70
2023-03-19T20:17:31.697Z,14.70
2023-03-19T20:20:01.281Z,14.70
2023-03-19T20:22:30.412Z,14.70
2023-03-19T20:24:59.372Z,14.70
2023-03-19T20:27:33.563Z,14.70
2023-03-19T20:30:03.193Z,14.70
2023-03-19T20:32:35.198Z,14.70
2023-03-19T20:35:06.045Z,14.60
2023-03-19T20:37:35.118Z,14.60
2023-03-19T20:40:04.044Z,14.60
2023-03-19T20:42:35.321Z,14.60
2023-03-19T20:45:07.658Z,14.60
2023-03-19T20:47:36.995Z,14.60
2023-03-19T20:50:06.423Z,14.60
2023-03-19T20:52:35.409Z,14.50
2023-03-19T20:55:04.726Z,14.50
2023-03-19T20:57:35.249Z,14.40
2023-03-19T21:00:19.951Z,14.40
2023-03-19T21:02:49.748Z,14.40
2023-03-19T21:05:20.251Z,14.30
2023-03-19T21:07:50.979Z,14.30
2023-03-19T21:10:33.335Z,14.30
2023-03-19T21:13:03.672Z,14.20
2023-03-19T21:15:32.988Z,14.20
2023-03-19T21:18:01.956Z,14.20
2023-03-19T21:20:32.693Z,14.20
2023-03-19T21:23:10.008Z,14.10
2023-03-19T21:25:39.375Z,14.10
2023-03-19T21:28:15.317Z,14.10
2023-03-19T21:30:47.067Z,14.10
2023-03-19T21:33:23.257Z,14.10
2023-03-19T21:35:52.824Z,14.00
2023-03-19T21:38:22.366Z,14.00
2023-03-19T21:40:52.623Z,13.90
2023-03-19T21:43:26.259Z,13.90
2023-03-19T21:45:56.540Z,13.90
2023-03-19T21:48:29.412Z,13.80
2023-03-19T21:50:59.628Z,13.80
2023-03-19T21:53:31.736Z,13.80
2023-03-19T21:56:02.424Z,13.80
2023-03-19T21:58:34.929Z,13.80
2023-03-19T22:01:05.704Z,13.80
2023-03-19T22:03:34.674Z,13.80
2023-03-19T22:06:03.967Z,13.80
2023-03-19T22:08:33.257Z,13.80
2023-03-19T22:11:03.060Z,13.80
2023-03-19T22:13:34.945Z,13.80
2023-03-19T22:16:04.532Z,13.70
2023-03-19T22:18:33.574Z,13.80
2023-03-19T22:21:02.577Z,13.70
2023-03-19T22:23:31.712Z,13.80
2023-03-19T22:26:00.794Z,13.80
2023-03-19T22:28:34.710Z,13.70
2023-03-19T22:31:05.091Z,13.70
2023-03-19T22:33:34.334Z,13.70
2023-03-19T22:36:03.894Z,13.70
2023-03-19T22:38:33.071Z,13.70
2023-03-19T22:41:02.760Z,13.60
2023-03-19T22:43:36.046Z,13.60
2023-03-19T22:46:10.133Z,13.60
2023-03-19T22:48:39.402Z,13.60
2023-03-19T22:51:09.210Z,13.50
2023-03-19T22:53:38.687Z,13.50
2023-03-19T22:56:08.528Z,13.50
2023-03-19T22:58:38.947Z,13.50
2023-03-19T23:01:32.486Z,13.50
2023-03-19T23:04:19.318Z,13.50
2023-03-19T23:06:48.546Z,13.50
2023-03-19T23:09:19.580Z,13.50
2023-03-19T23:11:49.553Z,13.50
2023-03-19T23:14:35.489Z,13.50
2023-03-19T23:17:13.797Z,13.40
2023-03-19T23:19:42.757Z,13.40
2023-03-19T23:22:16.479Z,13.40
2023-03-19T23:24:45.650Z,13.40
2023-03-19T23:27:23.692Z,13.40
2023-03-19T23:29:54.752Z,13.30
2023-03-19T23:32:23.581Z,13.30
2023-03-19T23:35:00.624Z,13.30
2023-03-19T23:37:31.380Z,13.20
2023-03-19T23:40:00.653Z,13.30
2023-03-19T23:42:32.604Z,13.30
2023-03-19T23:45:04.443Z,13.30
2023-03-19T23:47:33.970Z,13.20
2023-03-19T23:50:02.828Z,13.20
2023-03-19T23:52:31.803Z,13.20
2023-03-19T23:55:01.459Z,13.20
2023-03-19T23:57:30.420Z,13.20
2023-03-19T23:59:59.263Z,13.20
